KCAG

Craig-Moffat Airport

Craig, Colorado, USA
METAR KCAG 182153Z AUTO 25017G23KT 10SM FEW110 27/01 A3004 RMK AO2 PK WND 22027/2116 SLP095 T02720011
Observed Flight Rules
Jun-18 @ 21:53 UTC (49 minutes ago) Visual Flight Rules
Wind Visibility Clouds
250° at 17 knots
 Gusting to 23 knots
10 miles
  • Few at 11,000' AGL
Temperatures Readings
Current 27°C / 81°F
Dewpoint 1°C / 34°F
Humidity 18%
Altimeter 30.04" Hg
Pressure 1009.5 hPa
Elevation 1887
METAR KCAG 182153Z AUTO 25017G23KT 10SM FEW110 27/01 A3004 RMK AO2 PK WND 22027/2116 SLP095 T02720011
Observed Flight Rules
Jun-18 @ 21:53 UTC
(49 minutes ago)
VFR
Wind Visibility
250° at 17 knots
 Gusting to 23 knots
10 miles
Clouds
  • Few at 11,000' AGL
Temperature Dewpoint
27°C / 81°F 1°C / 34°F
Humidity Altimeter Pressure
18% 30.04" Hg 1009.5 hPa